sensor_id;sensor_type;location;lat;lon;timestamp;temperature;humidity
44431;DHT22;30135;47.866;-4.222;2023-06-04T00:00:12;17.90;71.30
44431;DHT22;30135;47.866;-4.222;2023-06-04T00:02:39;17.90;71.20
44431;DHT22;30135;47.866;-4.222;2023-06-04T00:05:05;17.90;71.30
44431;DHT22;30135;47.866;-4.222;2023-06-04T00:07:31;17.90;71.20
44431;DHT22;30135;47.866;-4.222;2023-06-04T00:09:57;17.80;71.10
44431;DHT22;30135;47.866;-4.222;2023-06-04T00:12:23;17.80;71.20
44431;DHT22;30135;47.866;-4.222;2023-06-04T00:14:49;17.80;71.20
44431;DHT22;30135;47.866;-4.222;2023-06-04T00:17:15;17.80;71.20
44431;DHT22;30135;47.866;-4.222;2023-06-04T00:19:41;17.80;71.20
44431;DHT22;30135;47.866;-4.222;2023-06-04T00:22:08;17.80;71.20
44431;DHT22;30135;47.866;-4.222;2023-06-04T00:24:36;17.80;71.20
44431;DHT22;30135;47.866;-4.222;2023-06-04T00:27:03;17.80;71.30
44431;DHT22;30135;47.866;-4.222;2023-06-04T00:29:29;17.70;71.20
44431;DHT22;30135;47.866;-4.222;2023-06-04T00:31:55;17.70;71.30
44431;DHT22;30135;47.866;-4.222;2023-06-04T00:34:23;17.70;71.30
44431;DHT22;30135;47.866;-4.222;2023-06-04T00:36:49;17.70;71.30
44431;DHT22;30135;47.866;-4.222;2023-06-04T00:39:15;17.70;71.30
44431;DHT22;30135;47.866;-4.222;2023-06-04T00:41:41;17.70;72.10
44431;DHT22;30135;47.866;-4.222;2023-06-04T00:44:07;17.70;71.40
44431;DHT22;30135;47.866;-4.222;2023-06-04T00:46:34;17.70;71.50
44431;DHT22;30135;47.866;-4.222;2023-06-04T00:49:01;17.60;71.40
44431;DHT22;30135;47.866;-4.222;2023-06-04T00:51:30;17.60;71.50
44431;DHT22;30135;47.866;-4.222;2023-06-04T00:53:56;17.60;71.50
44431;DHT22;30135;47.866;-4.222;2023-06-04T00:56:22;17.60;71.50
44431;DHT22;30135;47.866;-4.222;2023-06-04T00:58:48;17.60;71.50
44431;DHT22;30135;47.866;-4.222;2023-06-04T01:04:16;17.50;71.60
44431;DHT22;30135;47.866;-4.222;2023-06-04T01:06:50;17.50;71.70
44431;DHT22;30135;47.866;-4.222;2023-06-04T01:09:19;17.50;71.70
44431;DHT22;30135;47.866;-4.222;2023-06-04T01:11:46;17.50;71.80
44431;DHT22;30135;47.866;-4.222;2023-06-04T01:14:12;17.50;72.00
44431;DHT22;30135;47.866;-4.222;2023-06-04T01:16:53;17.50;72.00
44431;DHT22;30135;47.866;-4.222;2023-06-04T01:19:54;17.40;72.10
44431;DHT22;30135;47.866;-4.222;2023-06-04T01:22:56;17.40;72.10
44431;DHT22;30135;47.866;-4.222;2023-06-04T01:25:40;17.40;72.10
44431;DHT22;30135;47.866;-4.222;2023-06-04T01:28:11;17.40;72.20
44431;DHT22;30135;47.866;-4.222;2023-06-04T01:30:44;17.40;72.20
44431;DHT22;30135;47.866;-4.222;2023-06-04T01:33:16;17.30;72.10
44431;DHT22;30135;47.866;-4.222;2023-06-04T01:35:43;17.30;72.30
44431;DHT22;30135;47.866;-4.222;2023-06-04T01:38:10;17.30;72.30
44431;DHT22;30135;47.866;-4.222;2023-06-04T01:40:36;17.30;72.40
44431;DHT22;30135;47.866;-4.222;2023-06-04T01:43:03;17.30;72.50
44431;DHT22;30135;47.866;-4.222;2023-06-04T01:45:31;17.20;72.50
44431;DHT22;30135;47.866;-4.222;2023-06-04T01:47:57;17.20;72.50
44431;DHT22;30135;47.866;-4.222;2023-06-04T01:50:25;17.20;72.50
44431;DHT22;30135;47.866;-4.222;2023-06-04T01:52:52;17.20;72.50
44431;DHT22;30135;47.866;-4.222;2023-06-04T01:55:18;17.20;72.50
44431;DHT22;30135;47.866;-4.222;2023-06-04T01:57:45;17.20;72.60
44431;DHT22;30135;47.866;-4.222;2023-06-04T02:00:14;17.20;72.60
44431;DHT22;30135;47.866;-4.222;2023-06-04T02:02:43;17.10;72.60
44431;DHT22;30135;47.866;-4.222;2023-06-04T02:05:11;17.10;72.60
44431;DHT22;30135;47.866;-4.222;2023-06-04T02:07:42;17.10;72.60
44431;DHT22;30135;47.866;-4.222;2023-06-04T02:10:19;17.10;72.70
44431;DHT22;30135;47.866;-4.222;2023-06-04T02:13:00;17.10;72.80
44431;DHT22;30135;47.866;-4.222;2023-06-04T02:15:31;17.10;72.90
44431;DHT22;30135;47.866;-4.222;2023-06-04T02:18:11;17.10;72.90
44431;DHT22;30135;47.866;-4.222;2023-06-04T02:20:43;17.10;72.90
44431;DHT22;30135;47.866;-4.222;2023-06-04T02:23:10;17.00;72.90
44431;DHT22;30135;47.866;-4.222;2023-06-04T02:25:36;17.00;72.90
44431;DHT22;30135;47.866;-4.222;2023-06-04T02:28:02;17.00;73.00
44431;DHT22;30135;47.866;-4.222;2023-06-04T02:30:28;16.90;73.00
44431;DHT22;30135;47.866;-4.222;2023-06-04T02:32:54;16.90;73.10
44431;DHT22;30135;47.866;-4.222;2023-06-04T02:35:21;16.90;73.10
44431;DHT22;30135;47.866;-4.222;2023-06-04T02:37:49;16.90;73.20
44431;DHT22;30135;47.866;-4.222;2023-06-04T02:40:16;16.90;73.20
44431;DHT22;30135;47.866;-4.222;2023-06-04T02:42:42;16.90;73.20
44431;DHT22;30135;47.866;-4.222;2023-06-04T02:45:10;16.90;73.30
44431;DHT22;30135;47.866;-4.222;2023-06-04T02:47:37;16.90;73.20
44431;DHT22;30135;47.866;-4.222;2023-06-04T02:50:03;16.90;73.40
44431;DHT22;30135;47.866;-4.222;2023-06-04T02:52:30;16.90;73.30
44431;DHT22;30135;47.866;-4.222;2023-06-04T02:54:58;16.90;73.40
44431;DHT22;30135;47.866;-4.222;2023-06-04T02:57:24;16.90;73.40
44431;DHT22;30135;47.866;-4.222;2023-06-04T02:59:50;16.80;73.40
44431;DHT22;30135;47.866;-4.222;2023-06-04T03:02:17;16.80;73.40
44431;DHT22;30135;47.866;-4.222;2023-06-04T03:04:43;16.80;73.40
44431;DHT22;30135;47.866;-4.222;2023-06-04T03:07:09;16.80;73.40
44431;DHT22;30135;47.866;-4.222;2023-06-04T03:09:37;16.80;73.50
44431;DHT22;30135;47.866;-4.222;2023-06-04T03:12:03;16.80;73.50
44431;DHT22;30135;47.866;-4.222;2023-06-04T03:14:31;16.80;73.60
44431;DHT22;30135;47.866;-4.222;2023-06-04T03:17:02;16.80;73.60
44431;DHT22;30135;47.866;-4.222;2023-06-04T03:19:40;16.80;73.70
44431;DHT22;30135;47.866;-4.222;2023-06-04T03:22:08;16.80;73.70
44431;DHT22;30135;47.866;-4.222;2023-06-04T03:24:36;16.70;73.70
44431;DHT22;30135;47.866;-4.222;2023-06-04T03:27:04;16.70;73.70
44431;DHT22;30135;47.866;-4.222;2023-06-04T03:29:35;16.70;73.70
44431;DHT22;30135;47.866;-4.222;2023-06-04T03:32:01;16.70;73.80
44431;DHT22;30135;47.866;-4.222;2023-06-04T03:34:28;16.70;73.80
44431;DHT22;30135;47.866;-4.222;2023-06-04T03:36:57;16.70;73.80
44431;DHT22;30135;47.866;-4.222;2023-06-04T03:39:23;16.70;73.90
44431;DHT22;30135;47.866;-4.222;2023-06-04T03:41:50;16.70;74.00
44431;DHT22;30135;47.866;-4.222;2023-06-04T03:44:16;16.60;73.90
44431;DHT22;30135;47.866;-4.222;2023-06-04T03:46:44;16.60;73.90
44431;DHT22;30135;47.866;-4.222;2023-06-04T03:49:11;16.60;74.00
44431;DHT22;30135;47.866;-4.222;2023-06-04T03:51:38;16.60;74.00
44431;DHT22;30135;47.866;-4.222;2023-06-04T03:54:05;16.60;74.00
44431;DHT22;30135;47.866;-4.222;2023-06-04T03:56:32;16.60;74.00
44431;DHT22;30135;47.866;-4.222;2023-06-04T03:58:59;16.60;74.00
44431;DHT22;30135;47.866;-4.222;2023-06-04T04:01:26;16.60;74.10
44431;DHT22;30135;47.866;-4.222;2023-06-04T04:03:52;16.60;74.10
44431;DHT22;30135;47.866;-4.222;2023-06-04T04:06:19;16.50;74.00
44431;DHT22;30135;47.866;-4.222;2023-06-04T04:08:46;16.50;74.10
44431;DHT22;30135;47.866;-4.222;2023-06-04T04:11:17;16.50;74.20
44431;DHT22;30135;47.866;-4.222;2023-06-04T04:13:45;16.50;74.30
44431;DHT22;30135;47.866;-4.222;2023-06-04T04:16:12;16.50;74.30
44431;DHT22;30135;47.866;-4.222;2023-06-04T04:18:38;16.40;74.30
44431;DHT22;30135;47.866;-4.222;2023-06-04T04:21:06;16.40;74.40
44431;DHT22;30135;47.866;-4.222;2023-06-04T04:23:32;16.40;74.40
44431;DHT22;30135;47.866;-4.222;2023-06-04T04:25:59;16.40;74.50
44431;DHT22;30135;47.866;-4.222;2023-06-04T04:28:26;16.40;74.50
44431;DHT22;30135;47.866;-4.222;2023-06-04T04:30:54;16.40;74.60
44431;DHT22;30135;47.866;-4.222;2023-06-04T04:33:23;16.30;74.60
44431;DHT22;30135;47.866;-4.222;2023-06-04T04:35:51;16.30;74.60
44431;DHT22;30135;47.866;-4.222;2023-06-04T04:38:20;16.30;74.60
44431;DHT22;30135;47.866;-4.222;2023-06-04T04:40:49;16.30;74.60
44431;DHT22;30135;47.866;-4.222;2023-06-04T04:43:32;16.30;74.70
44431;DHT22;30135;47.866;-4.222;2023-06-04T04:45:59;16.30;74.80
44431;DHT22;30135;47.866;-4.222;2023-06-04T04:48:25;16.30;74.80
44431;DHT22;30135;47.866;-4.222;2023-06-04T04:50:52;16.30;74.80
44431;DHT22;30135;47.866;-4.222;2023-06-04T04:53:19;16.30;74.80
44431;DHT22;30135;47.866;-4.222;2023-06-04T04:55:45;16.20;74.90
44431;DHT22;30135;47.866;-4.222;2023-06-04T04:58:10;16.20;74.90
44431;DHT22;30135;47.866;-4.222;2023-06-04T05:00:36;16.20;74.90
44431;DHT22;30135;47.866;-4.222;2023-06-04T05:03:02;16.20;74.90
44431;DHT22;30135;47.866;-4.222;2023-06-04T05:05:29;16.20;74.90
44431;DHT22;30135;47.866;-4.222;2023-06-04T05:07:54;16.20;75.00
44431;DHT22;30135;47.866;-4.222;2023-06-04T05:10:20;16.20;75.00
44431;DHT22;30135;47.866;-4.222;2023-06-04T05:12:54;16.20;75.10
44431;DHT22;30135;47.866;-4.222;2023-06-04T05:15:22;16.20;75.20
44431;DHT22;30135;47.866;-4.222;2023-06-04T05:17:48;16.20;75.20
44431;DHT22;30135;47.866;-4.222;2023-06-04T05:20:14;16.20;75.30
44431;DHT22;30135;47.866;-4.222;2023-06-04T05:22:41;16.20;75.30
44431;DHT22;30135;47.866;-4.222;2023-06-04T05:25:09;16.20;75.30
44431;DHT22;30135;47.866;-4.222;2023-06-04T05:27:35;16.20;75.40
44431;DHT22;30135;47.866;-4.222;2023-06-04T05:30:05;16.20;75.50
44431;DHT22;30135;47.866;-4.222;2023-06-04T05:32:32;16.20;75.50
44431;DHT22;30135;47.866;-4.222;2023-06-04T05:34:59;16.20;75.50
44431;DHT22;30135;47.866;-4.222;2023-06-04T05:37:26;16.30;75.60
44431;DHT22;30135;47.866;-4.222;2023-06-04T05:39:56;16.30;75.60
44431;DHT22;30135;47.866;-4.222;2023-06-04T05:42:23;16.30;75.60
44431;DHT22;30135;47.866;-4.222;2023-06-04T05:44:49;16.20;75.60
44431;DHT22;30135;47.866;-4.222;2023-06-04T05:47:16;16.30;75.70
44431;DHT22;30135;47.866;-4.222;2023-06-04T05:49:42;16.30;75.80
44431;DHT22;30135;47.866;-4.222;2023-06-04T05:52:08;16.30;75.80
44431;DHT22;30135;47.866;-4.222;2023-06-04T05:54:34;16.30;75.80
44431;DHT22;30135;47.866;-4.222;2023-06-04T05:57:00;16.30;75.90
44431;DHT22;30135;47.866;-4.222;2023-06-04T05:59:26;16.30;75.90
44431;DHT22;30135;47.866;-4.222;2023-06-04T06:01:52;16.30;75.90
44431;DHT22;30135;47.866;-4.222;2023-06-04T06:04:18;16.40;76.10
44431;DHT22;30135;47.866;-4.222;2023-06-04T06:06:45;16.40;76.10
44431;DHT22;30135;47.866;-4.222;2023-06-04T06:09:14;16.40;76.10
44431;DHT22;30135;47.866;-4.222;2023-06-04T06:11:41;16.40;76.10
44431;DHT22;30135;47.866;-4.222;2023-06-04T06:14:07;16.40;76.10
44431;DHT22;30135;47.866;-4.222;2023-06-04T06:16:33;16.50;76.00
44431;DHT22;30135;47.866;-4.222;2023-06-04T06:19:00;16.50;76.00
44431;DHT22;30135;47.866;-4.222;2023-06-04T06:21:27;16.50;75.90
44431;DHT22;30135;47.866;-4.222;2023-06-04T06:23:54;16.60;76.00
44431;DHT22;30135;47.866;-4.222;2023-06-04T06:26:20;16.60;76.00
44431;DHT22;30135;47.866;-4.222;2023-06-04T06:28:47;16.60;76.00
44431;DHT22;30135;47.866;-4.222;2023-06-04T06:31:13;16.60;75.90
44431;DHT22;30135;47.866;-4.222;2023-06-04T06:33:39;16.70;76.00
44431;DHT22;30135;47.866;-4.222;2023-06-04T06:36:15;16.70;75.80
44431;DHT22;30135;47.866;-4.222;2023-06-04T06:38:42;16.70;75.80
44431;DHT22;30135;47.866;-4.222;2023-06-04T06:41:08;16.80;75.90
44431;DHT22;30135;47.866;-4.222;2023-06-04T06:43:34;16.80;75.80
44431;DHT22;30135;47.866;-4.222;2023-06-04T06:46:00;16.80;75.70
44431;DHT22;30135;47.866;-4.222;2023-06-04T06:48:26;16.90;75.70
44431;DHT22;30135;47.866;-4.222;2023-06-04T06:50:53;16.90;75.70
44431;DHT22;30135;47.866;-4.222;2023-06-04T06:53:19;17.00;75.50
44431;DHT22;30135;47.866;-4.222;2023-06-04T06:55:45;17.00;75.40
44431;DHT22;30135;47.866;-4.222;2023-06-04T06:58:11;17.00;75.20
44431;DHT22;30135;47.866;-4.222;2023-06-04T07:00:37;17.10;75.20
44431;DHT22;30135;47.866;-4.222;2023-06-04T07:03:04;17.10;75.00
44431;DHT22;30135;47.866;-4.222;2023-06-04T07:05:30;17.10;74.90
44431;DHT22;30135;47.866;-4.222;2023-06-04T07:07:56;17.20;74.90
44431;DHT22;30135;47.866;-4.222;2023-06-04T07:10:24;17.20;74.70
44431;DHT22;30135;47.866;-4.222;2023-06-04T07:12:50;17.30;74.70
44431;DHT22;30135;47.866;-4.222;2023-06-04T07:15:16;17.30;74.60
44431;DHT22;30135;47.866;-4.222;2023-06-04T07:17:42;17.40;74.50
44431;DHT22;30135;47.866;-4.222;2023-06-04T07:20:08;17.40;74.30
44431;DHT22;30135;47.866;-4.222;2023-06-04T07:22:35;17.40;74.10
44431;DHT22;30135;47.866;-4.222;2023-06-04T07:25:01;17.40;74.10
44431;DHT22;30135;47.866;-4.222;2023-06-04T07:27:27;17.50;74.10
44431;DHT22;30135;47.866;-4.222;2023-06-04T07:29:53;17.50;74.00
44431;DHT22;30135;47.866;-4.222;2023-06-04T07:32:20;17.60;74.10
44431;DHT22;30135;47.866;-4.222;2023-06-04T07:34:46;17.60;74.10
44431;DHT22;30135;47.866;-4.222;2023-06-04T07:37:12;17.70;74.00
44431;DHT22;30135;47.866;-4.222;2023-06-04T07:39:39;17.70;73.80
44431;DHT22;30135;47.866;-4.222;2023-06-04T07:42:06;17.70;73.50
44431;DHT22;30135;47.866;-4.222;2023-06-04T07:44:36;17.80;73.60
44431;DHT22;30135;47.866;-4.222;2023-06-04T07:47:04;17.90;73.60
44431;DHT22;30135;47.866;-4.222;2023-06-04T07:49:30;17.90;73.40
44431;DHT22;30135;47.866;-4.222;2023-06-04T07:51:56;17.90;73.30
44431;DHT22;30135;47.866;-4.222;2023-06-04T07:54:23;18.00;73.30
44431;DHT22;30135;47.866;-4.222;2023-06-04T07:56:49;18.10;73.20
44431;DHT22;30135;47.866;-4.222;2023-06-04T07:59:15;18.10;72.80
44431;DHT22;30135;47.866;-4.222;2023-06-04T08:01:41;18.20;72.80
44431;DHT22;30135;47.866;-4.222;2023-06-04T08:04:07;18.20;72.70
44431;DHT22;30135;47.866;-4.222;2023-06-04T08:06:35;18.30;72.80
44431;DHT22;30135;47.866;-4.222;2023-06-04T08:09:05;18.40;72.60
44431;DHT22;30135;47.866;-4.222;2023-06-04T08:11:31;18.50;72.70
44431;DHT22;30135;47.866;-4.222;2023-06-04T08:13:57;18.50;72.60
44431;DHT22;30135;47.866;-4.222;2023-06-04T08:16:22;18.50;72.30
44431;DHT22;30135;47.866;-4.222;2023-06-04T08:18:48;18.60;72.50
44431;DHT22;30135;47.866;-4.222;2023-06-04T08:21:25;18.70;72.50
44431;DHT22;30135;47.866;-4.222;2023-06-04T08:23:52;18.70;72.70
44431;DHT22;30135;47.866;-4.222;2023-06-04T08:26:19;18.80;72.50
44431;DHT22;30135;47.866;-4.222;2023-06-04T08:28:47;18.80;72.20
44431;DHT22;30135;47.866;-4.222;2023-06-04T08:31:14;18.90;72.30
44431;DHT22;30135;47.866;-4.222;2023-06-04T08:33:41;18.90;72.10
44431;DHT22;30135;47.866;-4.222;2023-06-04T08:36:07;19.00;72.10
44431;DHT22;30135;47.866;-4.222;2023-06-04T08:38:32;19.10;71.80
44431;DHT22;30135;47.866;-4.222;2023-06-04T08:41:10;19.20;71.20
44431;DHT22;30135;47.866;-4.222;2023-06-04T08:43:42;19.30;71.00
44431;DHT22;30135;47.866;-4.222;2023-06-04T08:46:11;19.30;70.60
44431;DHT22;30135;47.866;-4.222;2023-06-04T08:48:38;19.40;70.40
44431;DHT22;30135;47.866;-4.222;2023-06-04T08:51:06;19.50;70.10
44431;DHT22;30135;47.866;-4.222;2023-06-04T08:53:36;19.50;70.10
44431;DHT22;30135;47.866;-4.222;2023-06-04T08:56:03;19.60;69.90
44431;DHT22;30135;47.866;-4.222;2023-06-04T08:58:32;19.70;69.90
44431;DHT22;30135;47.866;-4.222;2023-06-04T09:01:00;19.80;69.20
44431;DHT22;30135;47.866;-4.222;2023-06-04T09:03:27;19.90;69.00
44431;DHT22;30135;47.866;-4.222;2023-06-04T09:05:59;20.00;68.70
44431;DHT22;30135;47.866;-4.222;2023-06-04T09:08:27;20.10;68.30
44431;DHT22;30135;47.866;-4.222;2023-06-04T09:10:57;20.20;68.10
44431;DHT22;30135;47.866;-4.222;2023-06-04T09:13:28;20.20;68.00
44431;DHT22;30135;47.866;-4.222;2023-06-04T09:16:03;20.30;67.30
44431;DHT22;30135;47.866;-4.222;2023-06-04T09:18:32;20.50;66.60
44431;DHT22;30135;47.866;-4.222;2023-06-04T09:21:02;20.60;66.80
44431;DHT22;30135;47.866;-4.222;2023-06-04T09:23:50;20.60;66.10
44431;DHT22;30135;47.866;-4.222;2023-06-04T09:26:16;20.70;64.50
44431;DHT22;30135;47.866;-4.222;2023-06-04T09:28:49;20.80;65.10
44431;DHT22;30135;47.866;-4.222;2023-06-04T09:31:23;20.90;64.10
44431;DHT22;30135;47.866;-4.222;2023-06-04T09:33:52;21.00;64.00
44431;DHT22;30135;47.866;-4.222;2023-06-04T09:36:18;21.10;63.30
44431;DHT22;30135;47.866;-4.222;2023-06-04T09:38:45;21.20;62.80
44431;DHT22;30135;47.866;-4.222;2023-06-04T09:41:17;21.30;61.90
44431;DHT22;30135;47.866;-4.222;2023-06-04T09:43:47;21.40;61.30
44431;DHT22;30135;47.866;-4.222;2023-06-04T09:46:15;21.50;60.90
44431;DHT22;30135;47.866;-4.222;2023-06-04T09:48:43;21.60;59.90
44431;DHT22;30135;47.866;-4.222;2023-06-04T09:51:14;21.70;59.90
44431;DHT22;30135;47.866;-4.222;2023-06-04T09:53:41;21.80;59.30
44431;DHT22;30135;47.866;-4.222;2023-06-04T09:56:08;21.80;59.50
44431;DHT22;30135;47.866;-4.222;2023-06-04T09:58:37;21.90;59.20
44431;DHT22;30135;47.866;-4.222;2023-06-04T10:01:06;22.00;58.40
44431;DHT22;30135;47.866;-4.222;2023-06-04T10:03:34;22.00;58.10
44431;DHT22;30135;47.866;-4.222;2023-06-04T10:06:10;22.20;57.90
44431;DHT22;30135;47.866;-4.222;2023-06-04T10:08:42;22.20;57.30
44431;DHT22;30135;47.866;-4.222;2023-06-04T10:11:09;22.30;57.20
44431;DHT22;30135;47.866;-4.222;2023-06-04T10:14:38;22.30;56.90
44431;DHT22;30135;47.866;-4.222;2023-06-04T10:17:06;22.40;56.40
44431;DHT22;30135;47.866;-4.222;2023-06-04T10:19:35;22.50;56.60
44431;DHT22;30135;47.866;-4.222;2023-06-04T10:22:04;22.50;56.50
44431;DHT22;30135;47.866;-4.222;2023-06-04T10:24:31;22.60;56.30
44431;DHT22;30135;47.866;-4.222;2023-06-04T10:27:00;22.70;55.80
44431;DHT22;30135;47.866;-4.222;2023-06-04T10:29:30;22.70;55.00
44431;DHT22;30135;47.866;-4.222;2023-06-04T10:31:56;22.70;54.70
44431;DHT22;30135;47.866;-4.222;2023-06-04T10:34:22;22.80;54.90
44431;DHT22;30135;47.866;-4.222;2023-06-04T10:36:48;22.90;54.50
44431;DHT22;30135;47.866;-4.222;2023-06-04T10:39:33;22.90;54.30
44431;DHT22;30135;47.866;-4.222;2023-06-04T10:42:05;23.00;53.80
44431;DHT22;30135;47.866;-4.222;2023-06-04T10:44:42;23.00;53.80
44431;DHT22;30135;47.866;-4.222;2023-06-04T10:47:23;23.10;54.10
44431;DHT22;30135;47.866;-4.222;2023-06-04T10:50:07;23.20;54.00
44431;DHT22;30135;47.866;-4.222;2023-06-04T10:52:55;23.20;53.80
44431;DHT22;30135;47.866;-4.222;2023-06-04T10:55:25;23.30;54.10
44431;DHT22;30135;47.866;-4.222;2023-06-04T10:57:55;23.40;54.20
44431;DHT22;30135;47.866;-4.222;2023-06-04T11:00:33;23.50;53.80
44431;DHT22;30135;47.866;-4.222;2023-06-04T11:03:01;23.60;53.60
44431;DHT22;30135;47.866;-4.222;2023-06-04T11:05:38;23.60;53.20
44431;DHT22;30135;47.866;-4.222;2023-06-04T11:08:14;23.70;53.00
44431;DHT22;30135;47.866;-4.222;2023-06-04T11:10:42;23.70;52.70
44431;DHT22;30135;47.866;-4.222;2023-06-04T11:13:09;23.80;52.70
44431;DHT22;30135;47.866;-4.222;2023-06-04T11:15:43;23.90;52.60
44431;DHT22;30135;47.866;-4.222;2023-06-04T11:18:18;24.00;52.30
44431;DHT22;30135;47.866;-4.222;2023-06-04T11:20:47;24.00;51.80
44431;DHT22;30135;47.866;-4.222;2023-06-04T11:23:15;24.10;51.80
44431;DHT22;30135;47.866;-4.222;2023-06-04T11:25:43;24.10;51.80
44431;DHT22;30135;47.866;-4.222;2023-06-04T11:28:16;24.20;51.50
44431;DHT22;30135;47.866;-4.222;2023-06-04T11:31:00;24.30;50.90
44431;DHT22;30135;47.866;-4.222;2023-06-04T11:33:44;24.30;50.20
44431;DHT22;30135;47.866;-4.222;2023-06-04T11:36:22;24.30;49.90
44431;DHT22;30135;47.866;-4.222;2023-06-04T11:39:00;24.40;49.80
44431;DHT22;30135;47.866;-4.222;2023-06-04T11:41:30;24.40;49.80
44431;DHT22;30135;47.866;-4.222;2023-06-04T11:44:01;24.40;49.80
44431;DHT22;30135;47.866;-4.222;2023-06-04T11:46:29;24.50;49.80
44431;DHT22;30135;47.866;-4.222;2023-06-04T11:48:55;24.50;49.60
44431;DHT22;30135;47.866;-4.222;2023-06-04T11:51:21;24.50;49.30
44431;DHT22;30135;47.866;-4.222;2023-06-04T11:53:48;24.60;49.20
44431;DHT22;30135;47.866;-4.222;2023-06-04T11:56:15;24.60;49.00
44431;DHT22;30135;47.866;-4.222;2023-06-04T11:58:41;24.70;48.60
44431;DHT22;30135;47.866;-4.222;2023-06-04T12:01:08;24.70;48.40
44431;DHT22;30135;47.866;-4.222;2023-06-04T12:03:36;24.80;48.30
44431;DHT22;30135;47.866;-4.222;2023-06-04T12:08:54;24.90;48.60
44431;DHT22;30135;47.866;-4.222;2023-06-04T12:11:28;24.90;48.50
44431;DHT22;30135;47.866;-4.222;2023-06-04T12:13:58;24.90;48.10
44431;DHT22;30135;47.866;-4.222;2023-06-04T12:16:26;24.90;48.30
44431;DHT22;30135;47.866;-4.222;2023-06-04T12:19:04;24.90;48.50
44431;DHT22;30135;47.866;-4.222;2023-06-04T12:21:33;24.90;48.20
44431;DHT22;30135;47.866;-4.222;2023-06-04T12:24:07;25.00;48.80
44431;DHT22;30135;47.866;-4.222;2023-06-04T12:26:34;25.10;48.40
44431;DHT22;30135;47.866;-4.222;2023-06-04T12:29:16;25.00;48.40
44431;DHT22;30135;47.866;-4.222;2023-06-04T12:31:44;25.10;48.20
44431;DHT22;30135;47.866;-4.222;2023-06-04T12:34:14;25.10;48.30
44431;DHT22;30135;47.866;-4.222;2023-06-04T12:36:40;25.20;48.60
44431;DHT22;30135;47.866;-4.222;2023-06-04T12:39:07;25.20;47.90
44431;DHT22;30135;47.866;-4.222;2023-06-04T12:41:33;25.20;47.70
44431;DHT22;30135;47.866;-4.222;2023-06-04T12:44:01;25.20;47.60
44431;DHT22;30135;47.866;-4.222;2023-06-04T12:46:27;25.20;47.80
44431;DHT22;30135;47.866;-4.222;2023-06-04T12:48:54;25.20;47.90
44431;DHT22;30135;47.866;-4.222;2023-06-04T12:51:21;25.20;47.80
44431;DHT22;30135;47.866;-4.222;2023-06-04T12:53:47;25.30;47.60
44431;DHT22;30135;47.866;-4.222;2023-06-04T12:56:14;25.20;47.70
44431;DHT22;30135;47.866;-4.222;2023-06-04T12:58:40;25.20;47.60
44431;DHT22;30135;47.866;-4.222;2023-06-04T13:01:06;25.30;48.30
44431;DHT22;30135;47.866;-4.222;2023-06-04T13:03:33;25.30;47.50
44431;DHT22;30135;47.866;-4.222;2023-06-04T13:06:01;25.30;47.60
44431;DHT22;30135;47.866;-4.222;2023-06-04T13:08:27;25.30;47.60
44431;DHT22;30135;47.866;-4.222;2023-06-04T13:10:56;25.30;47.40
44431;DHT22;30135;47.866;-4.222;2023-06-04T13:13:22;25.30;47.30
44431;DHT22;30135;47.866;-4.222;2023-06-04T13:15:48;25.30;47.40
44431;DHT22;30135;47.866;-4.222;2023-06-04T13:18:14;25.30;47.20
44431;DHT22;30135;47.866;-4.222;2023-06-04T13:20:43;25.40;47.30
44431;DHT22;30135;47.866;-4.222;2023-06-04T13:23:09;25.40;47.20
44431;DHT22;30135;47.866;-4.222;2023-06-04T13:25:38;25.40;47.10
44431;DHT22;30135;47.866;-4.222;2023-06-04T13:28:04;25.40;47.50
44431;DHT22;30135;47.866;-4.222;2023-06-04T13:30:31;25.50;47.70
44431;DHT22;30135;47.866;-4.222;2023-06-04T13:32:57;25.60;47.90
44431;DHT22;30135;47.866;-4.222;2023-06-04T13:35:24;25.60;47.70
44431;DHT22;30135;47.866;-4.222;2023-06-04T13:37:50;25.60;47.60
44431;DHT22;30135;47.866;-4.222;2023-06-04T13:40:16;25.70;47.60
44431;DHT22;30135;47.866;-4.222;2023-06-04T13:42:42;25.70;47.30
44431;DHT22;30135;47.866;-4.222;2023-06-04T13:45:09;25.70;47.20
44431;DHT22;30135;47.866;-4.222;2023-06-04T13:47:35;25.70;47.10
44431;DHT22;30135;47.866;-4.222;2023-06-04T13:50:02;25.70;47.10
44431;DHT22;30135;47.866;-4.222;2023-06-04T13:52:29;25.70;47.20
44431;DHT22;30135;47.866;-4.222;2023-06-04T13:54:55;25.70;47.00
44431;DHT22;30135;47.866;-4.222;2023-06-04T13:57:22;25.80;47.30
44431;DHT22;30135;47.866;-4.222;2023-06-04T13:59:49;25.80;47.10
44431;DHT22;30135;47.866;-4.222;2023-06-04T14:02:15;25.80;46.80
44431;DHT22;30135;47.866;-4.222;2023-06-04T14:04:41;25.80;46.60
44431;DHT22;30135;47.866;-4.222;2023-06-04T14:07:07;25.80;46.50
44431;DHT22;30135;47.866;-4.222;2023-06-04T14:09:34;25.80;46.60
44431;DHT22;30135;47.866;-4.222;2023-06-04T14:12:02;25.80;46.80
44431;DHT22;30135;47.866;-4.222;2023-06-04T14:14:28;25.80;47.40
44431;DHT22;30135;47.866;-4.222;2023-06-04T14:17:02;25.80;46.70
44431;DHT22;30135;47.866;-4.222;2023-06-04T14:19:29;25.90;46.50
44431;DHT22;30135;47.866;-4.222;2023-06-04T14:21:56;25.90;46.30
44431;DHT22;30135;47.866;-4.222;2023-06-04T14:24:22;25.80;46.20
44431;DHT22;30135;47.866;-4.222;2023-06-04T14:26:48;25.80;46.50
44431;DHT22;30135;47.866;-4.222;2023-06-04T14:29:14;25.80;46.30
44431;DHT22;30135;47.866;-4.222;2023-06-04T14:31:40;25.80;46.20
44431;DHT22;30135;47.866;-4.222;2023-06-04T14:34:06;25.80;46.40
44431;DHT22;30135;47.866;-4.222;2023-06-04T14:36:34;25.80;45.90
44431;DHT22;30135;47.866;-4.222;2023-06-04T14:39:00;25.80;46.30
44431;DHT22;30135;47.866;-4.222;2023-06-04T14:41:26;25.80;46.30
44431;DHT22;30135;47.866;-4.222;2023-06-04T14:43:52;25.80;46.20
44431;DHT22;30135;47.866;-4.222;2023-06-04T14:46:19;25.80;46.30
44431;DHT22;30135;47.866;-4.222;2023-06-04T14:48:45;25.80;46.30
44431;DHT22;30135;47.866;-4.222;2023-06-04T14:51:11;25.80;46.30
44431;DHT22;30135;47.866;-4.222;2023-06-04T14:53:37;25.80;46.10
44431;DHT22;30135;47.866;-4.222;2023-06-04T14:56:06;25.80;46.10
44431;DHT22;30135;47.866;-4.222;2023-06-04T14:58:33;25.90;46.20
44431;DHT22;30135;47.866;-4.222;2023-06-04T15:01:00;25.90;46.00
44431;DHT22;30135;47.866;-4.222;2023-06-04T15:03:29;25.90;46.10
44431;DHT22;30135;47.866;-4.222;2023-06-04T15:05:55;25.90;45.60
44431;DHT22;30135;47.866;-4.222;2023-06-04T15:08:22;25.90;46.00
44431;DHT22;30135;47.866;-4.222;2023-06-04T15:10:48;25.80;46.00
44431;DHT22;30135;47.866;-4.222;2023-06-04T15:13:14;25.80;46.10
44431;DHT22;30135;47.866;-4.222;2023-06-04T15:15:40;25.80;46.40
44431;DHT22;30135;47.866;-4.222;2023-06-04T15:18:06;25.90;46.80
44431;DHT22;30135;47.866;-4.222;2023-06-04T15:20:33;26.00;47.00
44431;DHT22;30135;47.866;-4.222;2023-06-04T15:22:59;26.00;47.30
44431;DHT22;30135;47.866;-4.222;2023-06-04T15:25:25;26.00;47.60
44431;DHT22;30135;47.866;-4.222;2023-06-04T15:27:51;26.10;48.10